Time;durP1;ratioP1;P1;durP2;ratioP2;P2;SDS_P1;SDS_P2;PMS_P1;PMS_P2;Temp;Humidity;BMP_temperature;BMP_pressure;BME280_temperature;BME280_humidity;BME280_pressure;Samples;Min_cycle;Max_cycle;Signal;HPM_P1;HPM_P2
2021/09/28 00:02:24;;;;;;;;;;;;;;;12.12;67.79;102087.91;1734197;82;20184;-70
2021/09/28 00:04:56;;;;;;;;;;;;;;;12.09;67.84;102093.41;1725618;83;20291;-70
2021/09/28 00:07:28;;;;;;;;;;;;;;;12.03;68.02;102084.60;1726842;82;20243;-70
2021/09/28 00:09:59;;;;;;;;;;;;;;;11.96;68.03;102085.24;1746217;81;20257;-71
2021/09/28 00:12:31;;;;;;;;;;;;;;;11.90;68.29;102075.05;1746515;82;20320;-70
2021/09/28 00:15:05;;;;;;;;;;;;;;;11.85;68.18;102076.29;1746321;82;20570;-70
2021/09/28 00:17:37;;;;;;;;;;;;;;;11.81;68.27;102079.78;1746430;82;20218;-72
2021/09/28 00:20:10;;;;;;;;;;;;;;;11.76;68.33;102073.54;1746419;81;20262;-73
2021/09/28 00:22:42;;;;;;;;;;;;;;;11.78;68.42;102078.31;1746478;82;20611;-72
2021/09/28 00:25:13;;;;;;;;;;;;;;;11.81;68.50;102072.27;1744539;82;20285;-73
2021/09/28 00:27:45;;;;;;;;;;;;;;;11.86;68.55;102076.59;1735806;82;20252;-74
2021/09/28 00:30:17;;;;;;;;;;;;;;;11.89;68.54;102080.31;1725864;83;20581;-73
2021/09/28 00:32:50;;;;;;;;;;;;;;;11.87;68.57;102072.72;1754592;82;20225;-74
2021/09/28 00:35:21;;;;;;;;;;;;;;;11.82;68.67;102072.60;1755982;82;20212;-73
2021/09/28 00:37:53;;;;;;;;;;;;;;;11.79;68.82;102076.40;1756104;82;20221;-73
2021/09/28 00:40:25;;;;;;;;;;;;;;;11.76;68.87;102070.76;1733019;82;21342;-72
2021/09/28 00:42:58;;;;;;;;;;;;;;;11.73;68.99;102073.16;1726287;83;20664;-72
2021/09/28 00:45:30;;;;;;;;;;;;;;;11.66;68.97;102067.67;1726019;83;20601;-71
2021/09/28 00:48:02;;;;;;;;;;;;;;;11.61;69.16;102077.25;1726147;83;20224;-71
2021/09/28 00:50:34;;;;;;;;;;;;;;;11.55;69.26;102072.59;1725943;83;20288;-72
2021/09/28 00:53:06;;;;;;;;;;;;;;;11.49;69.51;102076.30;1728628;82;20314;-72
2021/09/28 00:55:38;;;;;;;;;;;;;;;11.51;69.75;102071.91;1755975;82;20261;-72
2021/09/28 00:58:09;;;;;;;;;;;;;;;11.57;69.96;102075.14;1738094;82;20302;-72
2021/09/28 01:00:40;;;;;;;;;;;;;;;11.60;69.85;102072.77;1737876;82;20654;-71
2021/09/28 01:03:12;;;;;;;;;;;;;;;11.62;69.65;102072.55;1737835;82;20191;-72
2021/09/28 01:05:44;;;;;;;;;;;;;;;11.59;69.51;102075.25;1737711;82;20250;-72
2021/09/28 01:08:16;;;;;;;;;;;;;;;11.61;69.45;102078.64;1738006;82;20222;-72
2021/09/28 01:10:48;;;;;;;;;;;;;;;11.61;69.33;102074.47;1729776;82;20264;-72
2021/09/28 01:13:21;;;;;;;;;;;;;;;11.59;69.23;102078.56;1709996;84;20199;-72
2021/09/28 01:16:04;;;;;;;;;;;;;;;11.57;69.23;102078.75;1722550;81;20255;-72
2021/09/28 01:18:38;;;;;;;;;;;;;;;11.55;69.28;102083.72;1713478;82;20211;-70
2021/09/28 01:21:14;;;;;;;;;;;;;;;11.54;69.54;102081.16;1712536;84;20238;-72
2021/09/28 01:23:46;;;;;;;;;;;;;;;11.60;69.79;102085.83;1709031;80;20274;-70
2021/09/28 01:26:23;;;;;;;;;;;;;;;11.65;69.81;102084.59;1724261;83;20190;-71
2021/09/28 01:28:53;;;;;;;;;;;;;;;11.62;69.58;102085.90;1722333;83;20543;-71
2021/09/28 01:31:25;;;;;;;;;;;;;;;11.59;69.35;102086.91;1716588;83;20360;-70
2021/09/28 01:33:57;;;;;;;;;;;;;;;11.56;69.25;102081.23;1724539;83;20190;-70
2021/09/28 01:36:28;;;;;;;;;;;;;;;11.49;69.29;102081.86;1724525;83;20666;-71
2021/09/28 01:39:00;;;;;;;;;;;;;;;11.38;69.39;102078.45;1724564;83;20197;-71
2021/09/28 01:41:32;;;;;;;;;;;;;;;11.33;69.53;102078.33;1724625;83;20190;-71
2021/09/28 01:44:06;;;;;;;;;;;;;;;11.30;69.59;102078.78;1724720;83;20194;-69
2021/09/28 01:46:42;;;;;;;;;;;;;;;11.33;69.69;102078.86;1724652;83;20249;-70
2021/09/28 01:49:16;;;;;;;;;;;;;;;11.35;69.65;102085.89;1724618;83;20178;-71
2021/09/28 01:51:48;;;;;;;;;;;;;;;11.32;69.64;102086.34;1724394;83;20177;-69
2021/09/28 01:54:20;;;;;;;;;;;;;;;11.28;69.70;102076.78;1724466;83;20534;-69
2021/09/28 01:56:52;;;;;;;;;;;;;;;11.27;69.71;102077.86;1724653;83;20177;-71
2021/09/28 01:59:24;;;;;;;;;;;;;;;11.27;69.85;102083.42;1724800;83;20193;-70
2021/09/28 02:01:56;;;;;;;;;;;;;;;11.29;69.89;102090.13;1724768;83;20623;-70
2021/09/28 02:04:29;;;;;;;;;;;;;;;11.26;69.82;102084.48;1724698;83;20539;-69
2021/09/28 02:07:00;;;;;;;;;;;;;;;11.20;69.80;102080.39;1724699;83;20261;-70
2021/09/28 02:09:32;;;;;;;;;;;;;;;11.12;69.91;102079.32;1724574;83;20221;-70
2021/09/28 02:12:06;;;;;;;;;;;;;;;11.07;70.01;102085.55;1724652;83;20301;-72
2021/09/28 02:14:40;;;;;;;;;;;;;;;11.04;70.09;102086.02;1724184;83;20281;-73
2021/09/28 02:17:16;;;;;;;;;;;;;;;11.01;70.23;102089.80;1717226;83;20229;-73
2021/09/28 02:19:48;;;;;;;;;;;;;;;11.02;70.35;102088.16;1724716;83;20261;-72
2021/09/28 02:22:19;;;;;;;;;;;;;;;11.11;70.30;102088.71;1717293;83;20184;-74
2021/09/28 02:24:51;;;;;;;;;;;;;;;11.15;70.17;102078.31;1706023;83;20254;-73
2021/09/28 02:27:30;;;;;;;;;;;;;;;11.19;70.02;102083.70;1666697;82;20361;-76
2021/09/28 02:30:04;;;;;;;;;;;;;;;11.21;69.89;102088.52;1738373;82;20311;-74
2021/09/28 02:32:37;;;;;;;;;;;;;;;11.22;69.83;102083.26;1737012;82;20183;-74
2021/09/28 02:35:09;;;;;;;;;;;;;;;11.20;69.75;102086.79;1734709;82;20235;-74
2021/09/28 02:37:41;;;;;;;;;;;;;;;11.18;69.76;102090.35;1723586;82;20295;-71
2021/09/28 02:40:14;;;;;;;;;;;;;;;11.13;69.79;102091.58;1722879;83;20262;-70
2021/09/28 02:42:46;;;;;;;;;;;;;;;11.09;69.79;102092.27;1717901;83;20257;-71
2021/09/28 02:45:17;;;;;;;;;;;;;;;11.02;69.92;102099.27;1734069;82;20194;-70
2021/09/28 02:47:49;;;;;;;;;;;;;;;10.96;70.02;102100.19;1737725;82;20257;-69
2021/09/28 02:50:21;;;;;;;;;;;;;;;10.86;70.15;102101.79;1741735;82;20194;-70
2021/09/28 02:52:52;;;;;;;;;;;;;;;10.77;70.37;102104.00;1734195;82;20178;-70
2021/09/28 02:55:24;;;;;;;;;;;;;;;10.69;70.61;102107.07;1742395;82;20193;-70
2021/09/28 02:57:56;;;;;;;;;;;;;;;10.60;71.01;102108.45;1742330;82;20194;-70
2021/09/28 03:00:28;;;;;;;;;;;;;;;10.54;71.35;102108.48;1723574;82;20674;-70
2021/09/28 03:03:01;;;;;;;;;;;;;;;10.49;71.57;102109.69;1700669;83;20253;-71
2021/09/28 03:05:33;;;;;;;;;;;;;;;10.48;71.74;102110.77;1699097;84;20230;-70
2021/09/28 03:08:05;;;;;;;;;;;;;;;10.46;71.80;102106.83;1688044;82;20226;-70
2021/09/28 03:10:37;;;;;;;;;;;;;;;10.43;71.93;102114.75;1676423;84;20302;-70
2021/09/28 03:13:10;;;;;;;;;;;;;;;10.37;72.15;102116.52;1682819;85;20195;-69
2021/09/28 03:15:43;;;;;;;;;;;;;;;10.34;72.35;102114.17;1687732;83;20226;-70
2021/09/28 03:18:14;;;;;;;;;;;;;;;10.34;72.54;102120.28;1711620;84;20388;-70
2021/09/28 03:20:47;;;;;;;;;;;;;;;10.34;72.54;102121.11;1725407;82;20573;-71
2021/09/28 03:23:19;;;;;;;;;;;;;;;10.36;72.62;102125.06;1761834;81;20628;-70
2021/09/28 03:25:51;;;;;;;;;;;;;;;10.31;72.62;102122.10;1732724;82;20423;-71
2021/09/28 03:28:23;;;;;;;;;;;;;;;10.26;72.70;102120.52;1735207;82;20228;-71
2021/09/28 03:30:56;;;;;;;;;;;;;;;10.26;72.77;102118.61;1678300;83;20216;-70
2021/09/28 03:33:28;;;;;;;;;;;;;;;10.21;72.80;102112.05;1639187;82;20332;-70
2021/09/28 03:36:00;;;;;;;;;;;;;;;10.17;72.95;102119.97;1615824;88;20200;-68
2021/09/28 03:38:32;;;;;;;;;;;;;;;10.15;73.17;102117.09;1612824;87;20264;-69
2021/09/28 03:41:04;;;;;;;;;;;;;;;10.13;73.33;102120.09;1622635;87;20233;-69
2021/09/28 03:43:36;;;;;;;;;;;;;;;10.13;73.46;102119.22;1632110;87;20240;-67
2021/09/28 03:46:08;;;;;;;;;;;;;;;10.13;73.52;102119.22;1623754;88;20277;-69
2021/09/28 03:48:40;;;;;;;;;;;;;;;10.09;73.56;102117.44;1621666;87;20237;-68
2021/09/28 03:51:12;;;;;;;;;;;;;;;10.03;73.67;102120.23;1607549;87;20230;-69
2021/09/28 03:53:45;;;;;;;;;;;;;;;9.98;73.86;102120.88;1635251;87;20595;-69
2021/09/28 03:56:16;;;;;;;;;;;;;;;9.96;74.01;102120.77;1629970;87;20185;-70
2021/09/28 03:58:48;;;;;;;;;;;;;;;9.95;74.17;102113.01;1621160;87;20244;-69
2021/09/28 04:01:20;;;;;;;;;;;;;;;9.92;74.18;102120.37;1596660;88;20643;-71
2021/09/28 04:03:52;;;;;;;;;;;;;;;9.90;74.23;102108.66;1604129;89;20278;-69
2021/09/28 04:06:24;;;;;;;;;;;;;;;9.90;74.31;102118.92;1622887;88;20182;-66
2021/09/28 04:08:56;;;;;;;;;;;;;;;9.85;74.53;102115.39;1608956;89;20202;-68
2021/09/28 04:11:27;;;;;;;;;;;;;;;9.83;74.68;102121.71;1623946;88;20261;-68
2021/09/28 04:14:02;;;;;;;;;;;;;;;9.85;74.81;102121.50;1605249;89;20198;-69
2021/09/28 04:16:36;;;;;;;;;;;;;;;9.89;74.85;102122.22;1636690;88;20198;-71
2021/09/28 04:19:08;;;;;;;;;;;;;;;9.91;74.82;102128.38;1610603;89;20235;-77
2021/09/28 04:21:41;;;;;;;;;;;;;;;9.91;74.85;102124.77;1618021;88;20190;-69
2021/09/28 04:24:15;;;;;;;;;;;;;;;9.91;74.86;102134.48;1624591;88;20681;-69
2021/09/28 04:26:47;;;;;;;;;;;;;;;9.92;74.91;102138.95;1603566;88;20276;-70
2021/09/28 04:29:20;;;;;;;;;;;;;;;9.93;74.99;102136.49;1635005;88;20269;-73
2021/09/28 04:31:52;;;;;;;;;;;;;;;9.96;75.09;102138.28;1610276;86;20200;-72
2021/09/28 04:34:28;;;;;;;;;;;;;;;9.98;75.16;102136.69;1622066;88;20245;-78
2021/09/28 04:36:59;;;;;;;;;;;;;;;10.02;75.12;102136.54;1624265;87;20321;-76
2021/09/28 04:39:31;;;;;;;;;;;;;;;10.05;75.09;102139.78;1631014;87;20193;-77
2021/09/28 04:42:06;;;;;;;;;;;;;;;10.08;75.04;102144.01;1620708;87;20204;-78
2021/09/28 04:44:37;;;;;;;;;;;;;;;10.12;75.05;102145.28;1636612;86;20294;-69
2021/09/28 04:47:09;;;;;;;;;;;;;;;10.18;75.02;102142.48;1615695;88;20565;-70
2021/09/28 04:49:42;;;;;;;;;;;;;;;10.26;75.00;102147.77;1619409;87;20182;-71
2021/09/28 04:52:14;;;;;;;;;;;;;;;10.33;74.98;102151.90;1613871;87;20552;-70
2021/09/28 04:54:46;;;;;;;;;;;;;;;10.40;74.75;102147.98;1626677;88;20229;-72
2021/09/28 04:57:18;;;;;;;;;;;;;;;10.46;74.63;102149.86;1629909;87;20189;-73
2021/09/28 04:59:49;;;;;;;;;;;;;;;10.52;74.52;102146.75;1630686;88;20232;-72
2021/09/28 05:02:23;;;;;;;;;;;;;;;10.58;74.38;102145.30;1628724;87;20241;-71
2021/09/28 05:04:54;;;;;;;;;;;;;;;10.67;74.21;102147.27;1624126;87;20346;-74
2021/09/28 05:07:30;;;;;;;;;;;;;;;10.74;74.11;102146.67;1622239;87;20193;-74
2021/09/28 05:10:02;;;;;;;;;;;;;;;10.84;73.93;102157.61;1626600;88;20215;-77
2021/09/28 05:12:35;;;;;;;;;;;;;;;10.96;73.83;102157.16;1630302;88;20574;-71
2021/09/28 05:15:08;;;;;;;;;;;;;;;11.08;73.44;102145.61;1629220;88;20226;-73
2021/09/28 05:17:41;;;;;;;;;;;;;;;11.19;73.12;102155.98;1630181;87;20237;-74
2021/09/28 05:20:13;;;;;;;;;;;;;;;11.31;72.83;102156.11;1630264;88;20540;-73
2021/09/28 05:22:45;;;;;;;;;;;;;;;11.43;72.71;102162.61;1625890;88;20199;-70
2021/09/28 05:25:17;;;;;;;;;;;;;;;11.56;72.51;102166.08;1630478;88;20182;-71
2021/09/28 05:27:51;;;;;;;;;;;;;;;11.72;72.29;102164.65;1629379;87;20181;-73
2021/09/28 05:30:24;;;;;;;;;;;;;;;12.02;71.81;102159.47;1632586;86;20570;-73
2021/09/28 05:33:01;;;;;;;;;;;;;;;12.45;71.16;102168.50;1636555;87;20599;-73
2021/09/28 05:35:33;;;;;;;;;;;;;;;12.95;69.88;102166.22;1629503;86;20193;-76
2021/09/28 05:38:04;;;;;;;;;;;;;;;13.45;68.68;102166.10;1632847;86;20670;-74
2021/09/28 05:40:38;;;;;;;;;;;;;;;13.93;67.80;102161.06;1619728;86;20341;-79
2021/09/28 05:43:10;;;;;;;;;;;;;;;14.38;66.54;102158.70;1634015;88;20201;-75
2021/09/28 05:45:41;;;;;;;;;;;;;;;14.81;64.91;102161.75;1632394;88;20549;-74
2021/09/28 05:48:14;;;;;;;;;;;;;;;15.19;63.89;102159.59;1633880;88;20217;-76
2021/09/28 05:50:46;;;;;;;;;;;;;;;15.56;62.27;102164.97;1633446;88;20189;-75
2021/09/28 05:53:19;;;;;;;;;;;;;;;15.89;61.20;102159.30;1610738;88;20195;-73
2021/09/28 05:55:51;;;;;;;;;;;;;;;16.19;59.90;102159.98;1611290;88;20197;-75
2021/09/28 05:58:22;;;;;;;;;;;;;;;16.43;59.20;102164.23;1632834;88;20189;-76
2021/09/28 06:00:54;;;;;;;;;;;;;;;16.64;58.65;102168.11;1633249;88;20297;-76
2021/09/28 06:03:25;;;;;;;;;;;;;;;16.85;57.61;102168.59;1633961;88;20225;-76
2021/09/28 06:06:01;;;;;;;;;;;;;;;17.07;56.93;102174.41;1634053;88;20272;-74
2021/09/28 06:08:34;;;;;;;;;;;;;;;17.25;56.00;102171.78;1633940;88;20265;-74
2021/09/28 06:11:07;;;;;;;;;;;;;;;17.36;55.13;102168.77;1633895;88;20208;-74
2021/09/28 06:13:39;;;;;;;;;;;;;;;17.41;54.77;102175.01;1633985;88;20294;-77
2021/09/28 06:16:10;;;;;;;;;;;;;;;17.45;54.99;102174.23;1634139;88;20284;-75
2021/09/28 06:18:42;;;;;;;;;;;;;;;17.46;54.02;102176.45;1634040;88;20196;-73
2021/09/28 06:21:17;;;;;;;;;;;;;;;17.39;54.35;102183.73;1634051;88;20260;-75
2021/09/28 06:23:48;;;;;;;;;;;;;;;17.37;54.67;102182.27;1634075;88;20273;-74
2021/09/28 06:26:27;;;;;;;;;;;;;;;17.35;54.30;102187.28;1634057;88;20181;-75
2021/09/28 06:28:56;;;;;;;;;;;;;;;17.33;54.80;102183.91;1634037;88;20273;-75
2021/09/28 06:31:29;;;;;;;;;;;;;;;17.38;55.69;102183.41;1633950;88;20256;-74
2021/09/28 06:34:04;;;;;;;;;;;;;;;17.47;55.02;102182.36;1634026;88;20614;-74
2021/09/28 06:36:38;;;;;;;;;;;;;;;17.49;54.70;102189.98;1630805;88;20264;-75
2021/09/28 06:39:10;;;;;;;;;;;;;;;17.49;54.17;102191.38;1633957;88;20200;-76
2021/09/28 06:41:42;;;;;;;;;;;;;;;17.35;54.68;102194.31;1634107;88;20257;-75
2021/09/28 06:44:14;;;;;;;;;;;;;;;17.21;54.94;102195.87;1634029;88;20368;-75
2021/09/28 06:46:47;;;;;;;;;;;;;;;17.06;55.65;102199.97;1633979;88;20617;-74
2021/09/28 06:49:19;;;;;;;;;;;;;;;16.98;56.33;102201.83;1634148;88;20229;-73
2021/09/28 06:51:50;;;;;;;;;;;;;;;16.95;56.67;102197.59;1719362;80;20587;-71
2021/09/28 06:54:22;;;;;;;;;;;;;;;16.94;56.68;102200.12;1772619;80;20616;-75
2021/09/28 06:56:55;;;;;;;;;;;;;;;16.84;56.10;102205.65;1772520;81;20594;-71
2021/09/28 06:59:26;;;;;;;;;;;;;;;16.65;56.73;102204.86;1772502;81;20175;-69
2021/09/28 07:02:03;;;;;;;;;;;;;;;16.53;57.57;102209.77;1772418;81;20206;-71
2021/09/28 07:04:35;;;;;;;;;;;;;;;16.52;57.64;102205.28;1772557;81;20279;-68
2021/09/28 07:07:08;;;;;;;;;;;;;;;16.45;57.84;102211.08;1772425;81;20223;-69
2021/09/28 07:09:40;;;;;;;;;;;;;;;16.37;58.44;102203.10;1772494;81;20567;-69
2021/09/28 07:12:13;;;;;;;;;;;;;;;16.33;58.47;102201.92;1772495;81;20250;-70
2021/09/28 07:14:45;;;;;;;;;;;;;;;16.28;58.43;102202.42;1772524;81;20234;-69
2021/09/28 07:17:16;;;;;;;;;;;;;;;16.21;58.88;102201.20;1772607;81;20206;-69
2021/09/28 07:19:49;;;;;;;;;;;;;;;16.21;59.27;102200.38;1772530;81;20552;-68
2021/09/28 07:22:25;;;;;;;;;;;;;;;16.26;59.33;102209.69;1772521;81;20520;-70
2021/09/28 07:24:55;;;;;;;;;;;;;;;16.36;59.40;102208.42;1772451;80;20214;-71
2021/09/28 07:27:29;;;;;;;;;;;;;;;16.41;59.27;102203.45;1772391;80;20559;-70
2021/09/28 07:30:01;;;;;;;;;;;;;;;16.48;59.39;102206.91;1772565;81;20604;-70
2021/09/28 07:32:33;;;;;;;;;;;;;;;16.60;59.39;102209.01;1772370;81;20298;-75
2021/09/28 07:35:07;;;;;;;;;;;;;;;16.65;58.91;102213.28;1772349;81;20234;-75
2021/09/28 07:37:57;;;;;;;;;;;;;;;16.60;58.87;102216.88;1772675;81;20258;-74
2021/09/28 07:40:28;;;;;;;;;;;;;;;16.59;59.56;102207.32;1746626;81;20628;-76
2021/09/28 07:43:00;;;;;;;;;;;;;;;16.67;59.57;102213.85;1772558;81;20191;-75
2021/09/28 07:45:31;;;;;;;;;;;;;;;16.76;59.14;102217.90;1772458;81;20266;-75
2021/09/28 07:48:04;;;;;;;;;;;;;;;16.74;59.00;102204.67;1772404;81;20183;-75
2021/09/28 07:50:35;;;;;;;;;;;;;;;16.72;59.29;102207.77;1772618;81;20258;-75
2021/09/28 07:53:07;;;;;;;;;;;;;;;16.74;59.63;102205.53;1772396;81;20272;-75
2021/09/28 07:55:39;;;;;;;;;;;;;;;16.81;59.60;102203.90;1781462;80;20266;-77
2021/09/28 07:58:10;;;;;;;;;;;;;;;16.84;59.63;102200.03;1781561;80;20257;-75
2021/09/28 08:00:46;;;;;;;;;;;;;;;16.89;59.01;102209.88;1781471;80;20254;-74
2021/09/28 08:03:20;;;;;;;;;;;;;;;16.84;58.46;102206.19;1781582;80;20309;-75
2021/09/28 08:05:54;;;;;;;;;;;;;;;16.75;58.64;102197.40;1781648;80;20656;-74
2021/09/28 08:08:28;;;;;;;;;;;;;;;16.74;58.94;102200.45;1781529;80;20222;-75
2021/09/28 08:11:01;;;;;;;;;;;;;;;16.76;59.21;102204.70;1781448;80;20273;-74
2021/09/28 08:13:32;;;;;;;;;;;;;;;16.76;58.96;102198.26;1781624;80;20258;-76
2021/09/28 08:16:04;;;;;;;;;;;;;;;16.70;58.74;102207.16;1781549;80;20183;-75
2021/09/28 08:18:37;;;;;;;;;;;;;;;16.66;58.91;102195.33;1781403;80;20254;-75
2021/09/28 08:21:08;;;;;;;;;;;;;;;16.69;59.01;102202.66;1724670;78;20190;-70
2021/09/28 08:23:40;;;;;;;;;;;;;;;16.68;59.03;102201.52;1714644;84;20301;-70
2021/09/28 08:29:09;;;;;;;;;;;;;;;16.56;58.76;102203.63;1714428;84;20178;-71
2021/09/28 08:31:47;;;;;;;;;;;;;;;16.56;59.06;102196.61;1714678;84;20258;-69
2021/09/28 08:34:19;;;;;;;;;;;;;;;16.61;58.72;102198.94;1714484;84;20558;-68
2021/09/28 08:36:52;;;;;;;;;;;;;;;16.57;58.53;102197.76;1714577;84;20559;-70
2021/09/28 08:39:23;;;;;;;;;;;;;;;16.52;58.92;102196.29;1714525;84;20226;-69
2021/09/28 08:41:57;;;;;;;;;;;;;;;16.54;58.33;102197.44;1714531;84;20285;-69
2021/09/28 08:44:29;;;;;;;;;;;;;;;16.57;58.62;102195.53;1714603;84;20559;-73
2021/09/28 08:47:01;;;;;;;;;;;;;;;16.61;58.53;102201.74;1714695;84;20246;-69
2021/09/28 08:49:35;;;;;;;;;;;;;;;16.64;58.69;102197.56;1714490;83;20197;-69
2021/09/28 08:52:06;;;;;;;;;;;;;;;16.65;58.61;102198.68;1692635;84;20241;-73
2021/09/28 08:54:39;;;;;;;;;;;;;;;16.56;58.49;102189.59;1714636;84;20278;-68
2021/09/28 08:57:12;;;;;;;;;;;;;;;16.51;58.71;102183.95;1714654;84;20607;-74
2021/09/28 08:59:51;;;;;;;;;;;;;;;16.55;58.12;102184.56;1714619;84;20702;-69
2021/09/28 09:02:22;;;;;;;;;;;;;;;16.56;58.16;102191.00;1714525;84;20214;-69
2021/09/28 09:05:04;;;;;;;;;;;;;;;16.54;58.22;102180.61;1711392;84;20221;-70
2021/09/28 09:07:37;;;;;;;;;;;;;;;16.53;57.89;102176.95;1714614;84;20250;-68
2021/09/28 09:10:10;;;;;;;;;;;;;;;16.47;57.79;102191.19;1714647;84;20198;-72
2021/09/28 09:12:41;;;;;;;;;;;;;;;16.34;57.80;102176.14;1714733;84;20262;-74
2021/09/28 09:15:25;;;;;;;;;;;;;;;16.23;57.85;102185.53;1714673;84;20262;-75
2021/09/28 09:17:59;;;;;;;;;;;;;;;16.18;57.89;102184.92;1714839;84;20274;-71
2021/09/28 09:20:40;;;;;;;;;;;;;;;16.14;58.33;102183.73;1714827;83;20539;-74
2021/09/28 09:23:27;;;;;;;;;;;;;;;16.18;58.27;102183.52;1715593;84;20242;-74
2021/09/28 09:26:10;;;;;;;;;;;;;;;16.19;58.45;102185.21;1715583;84;20186;-74
2021/09/28 09:28:48;;;;;;;;;;;;;;;16.21;58.50;102185.78;1713586;84;20246;-72
2021/09/28 09:31:39;;;;;;;;;;;;;;;16.26;57.77;102189.20;1715875;84;20281;-73
2021/09/28 09:34:09;;;;;;;;;;;;;;;16.27;57.81;102183.91;1715454;84;20226;-72
2021/09/28 09:36:59;;;;;;;;;;;;;;;16.26;57.78;102189.20;1715679;84;20626;-73
2021/09/28 09:39:48;;;;;;;;;;;;;;;16.28;57.83;102181.40;1715647;84;20190;-74
2021/09/28 09:42:20;;;;;;;;;;;;;;;16.29;57.83;102189.55;1715378;84;20289;-76
2021/09/28 09:44:53;;;;;;;;;;;;;;;16.26;57.77;102190.60;1715431;84;20595;-75
2021/09/28 09:47:30;;;;;;;;;;;;;;;16.22;57.00;102186.08;1715590;84;20233;-73
2021/09/28 09:50:15;;;;;;;;;;;;;;;16.18;57.22;102189.67;1715812;84;20254;-74
2021/09/28 09:53:05;;;;;;;;;;;;;;;16.14;56.86;102183.73;1696113;80;20241;31
2021/09/28 09:55:39;;;;;;;;;;;;;;;16.19;56.49;102182.95;1681106;84;20292;-69
2021/09/28 09:58:10;;;;;;;;;;;;;;;16.28;55.50;102185.60;1651992;85;20298;-70
2021/09/28 10:00:42;;;;;;;;;;;;;;;16.34;55.48;102192.39;1671758;84;20231;-69
2021/09/28 10:03:14;;;;;;;;;;;;;;;16.34;54.51;102187.36;1661102;85;20338;-70
2021/09/28 10:05:47;;;;;;;;;;;;;;;16.32;54.77;102183.41;1676509;84;20292;-71
2021/09/28 10:08:19;;;;;;;;;;;;;;;16.34;55.02;102186.78;1648672;87;20256;-70
2021/09/28 10:10:57;;;;;;;;;;;;;;;16.36;54.73;102181.78;1645875;87;20340;-68
2021/09/28 10:13:54;;;;;;;;;;;;;;;16.42;54.09;102188.32;1640738;86;20258;-78
2021/09/28 10:16:34;;;;;;;;;;;;;;;16.49;53.42;102181.95;1694693;84;20284;-74
2021/09/28 10:19:23;;;;;;;;;;;;;;;16.52;52.33;102181.44;1690628;84;20262;-79
2021/09/28 10:22:00;;;;;;;;;;;;;;;16.53;52.59;102178.34;1658797;85;20279;-77
2021/09/28 10:24:32;;;;;;;;;;;;;;;16.58;52.43;102176.17;1673864;84;20213;-75
2021/09/28 10:27:11;;;;;;;;;;;;;;;16.64;52.13;102181.56;1646048;87;20297;-73
2021/09/28 10:29:47;;;;;;;;;;;;;;;16.68;52.38;102175.73;1692994;84;20578;-74
2021/09/28 10:32:34;;;;;;;;;;;;;;;16.72;51.89;102169.89;1683432;84;20263;-73
2021/09/28 10:35:12;;;;;;;;;;;;;;;16.74;51.46;102166.80;1692371;84;20280;-71
2021/09/28 10:37:55;;;;;;;;;;;;;;;16.79;51.24;102172.46;1691314;84;20192;-71
2021/09/28 10:40:33;;;;;;;;;;;;;;;16.85;50.14;102179.81;1690894;84;20253;-72
2021/09/28 10:43:26;;;;;;;;;;;;;;;16.88;50.03;102176.50;1696122;84;20220;-73
2021/09/28 10:46:00;;;;;;;;;;;;;;;16.89;49.57;102175.38;1693127;84;20269;-73
2021/09/28 10:48:33;;;;;;;;;;;;;;;16.93;49.33;102173.17;1681528;84;20210;-72
2021/09/28 10:51:07;;;;;;;;;;;;;;;16.97;49.41;102181.91;1690807;84;20538;-72
2021/09/28 10:53:43;;;;;;;;;;;;;;;17.00;49.25;102176.60;1694912;83;20578;-71
2021/09/28 10:56:15;;;;;;;;;;;;;;;17.01;49.54;102180.27;1695234;84;20193;-71
2021/09/28 10:59:04;;;;;;;;;;;;;;;17.03;49.47;102182.24;1690092;83;20230;-71
2021/09/28 11:01:36;;;;;;;;;;;;;;;17.02;48.86;102178.58;1698207;83;20233;-71
2021/09/28 11:04:15;;;;;;;;;;;;;;;17.02;48.83;102173.53;1695103;83;20281;-70
2021/09/28 11:06:51;;;;;;;;;;;;;;;17.03;48.81;102170.47;1697130;83;21240;-71
2021/09/28 11:09:26;;;;;;;;;;;;;;;17.09;49.11;102173.61;1695902;83;20543;-70
2021/09/28 11:11:59;;;;;;;;;;;;;;;17.19;49.12;102167.23;1693534;84;20190;-71
2021/09/28 11:14:31;;;;;;;;;;;;;;;17.28;48.87;102169.82;1697184;83;20225;-70
2021/09/28 11:17:07;;;;;;;;;;;;;;;17.35;48.89;102163.41;1673778;83;20290;-70
2021/09/28 11:19:39;;;;;;;;;;;;;;;17.42;48.68;102164.92;1687524;83;20639;-71
2021/09/28 11:22:15;;;;;;;;;;;;;;;17.52;48.26;102172.57;1690935;83;20253;-72
2021/09/28 11:24:46;;;;;;;;;;;;;;;17.59;46.96;102166.16;1697957;83;20179;-71
2021/09/28 11:27:18;;;;;;;;;;;;;;;17.66;47.30;102162.00;1698986;84;20193;-74
2021/09/28 11:29:51;;;;;;;;;;;;;;;17.78;46.17;102163.17;1706490;83;20215;-75
2021/09/28 11:32:22;;;;;;;;;;;;;;;17.88;46.31;102158.48;1699710;83;20190;-76
2021/09/28 11:34:55;;;;;;;;;;;;;;;17.98;46.03;102167.53;1689147;83;20197;-73
2021/09/28 11:37:27;;;;;;;;;;;;;;;18.01;45.55;102168.38;1690673;83;20196;-75
2021/09/28 11:39:59;;;;;;;;;;;;;;;17.98;45.51;102163.31;1683344;83;20337;-72
2021/09/28 11:42:35;;;;;;;;;;;;;;;17.95;45.66;102166.66;1691416;78;20228;31
2021/09/28 11:45:08;;;;;;;;;;;;;;;17.93;45.85;102167.50;1747154;81;20544;-70
2021/09/28 11:47:42;;;;;;;;;;;;;;;17.92;45.73;102163.00;1748816;82;20602;-71
2021/09/28 11:50:15;;;;;;;;;;;;;;;17.94;45.75;102163.02;1743073;82;20257;-71
2021/09/28 11:52:47;;;;;;;;;;;;;;;17.96;45.55;102171.16;1748894;81;20189;-71
2021/09/28 11:55:23;;;;;;;;;;;;;;;17.91;45.79;102157.92;1748500;82;20189;-70
2021/09/28 11:57:55;;;;;;;;;;;;;;;17.91;45.77;102169.17;1745302;82;20199;-71
2021/09/28 12:00:29;;;;;;;;;;;;;;;17.91;45.87;102166.36;1748621;81;20200;-72
2021/09/28 12:03:07;;;;;;;;;;;;;;;17.90;46.02;102168.89;1753027;81;20194;-75
2021/09/28 12:06:03;;;;;;;;;;;;;;;17.90;46.34;102166.08;1746848;82;20244;-69
2021/09/28 12:08:24;;;;;;;;;;;;;;;17.89;46.63;102173.36;1745740;81;20206;-68
2021/09/28 12:11:00;;;;;;;;;;;;;;;17.89;46.56;102171.96;1748390;82;20253;-69
2021/09/28 12:13:34;;;;;;;;;;;;;;;17.88;46.42;102175.89;1747799;81;20198;-71
2021/09/28 12:16:15;;;;;;;;;;;;;;;17.87;46.45;102177.02;1750112;81;20189;-72
2021/09/28 12:18:48;;;;;;;;;;;;;;;17.85;46.54;102186.30;1744477;82;20254;-70
2021/09/28 12:21:26;;;;;;;;;;;;;;;17.84;46.43;102185.44;1744253;82;20251;-69
2021/09/28 12:24:17;;;;;;;;;;;;;;;17.85;46.40;102177.86;1750718;81;20626;-72
2021/09/28 12:26:51;;;;;;;;;;;;;;;17.85;46.46;102183.48;1749005;82;20271;-72
2021/09/28 12:29:23;;;;;;;;;;;;;;;17.87;46.63;102179.83;1756300;81;20247;-70
2021/09/28 12:31:58;;;;;;;;;;;;;;;17.88;46.63;102183.78;1750835;82;20272;-70
2021/09/28 12:34:30;;;;;;;;;;;;;;;17.91;46.56;102180.98;1754360;81;20249;-69
2021/09/28 12:37:04;;;;;;;;;;;;;;;17.94;46.74;102184.64;1760892;81;20574;-71
2021/09/28 12:39:36;;;;;;;;;;;;;;;17.96;46.85;102182.39;1758122;81;20194;-70
2021/09/28 12:42:09;;;;;;;;;;;;;;;17.96;46.26;102195.05;1740653;81;20259;-68
2021/09/28 12:44:42;;;;;;;;;;;;;;;17.93;46.32;102197.84;1765708;79;20266;-70
2021/09/28 12:47:35;;;;;;;;;;;;;;;17.88;46.36;102202.05;1785582;79;20298;-68
2021/09/28 12:50:28;;;;;;;;;;;;;;;17.81;46.39;102196.37;1789613;79;20272;-71
2021/09/28 12:53:02;;;;;;;;;;;;;;;17.75;46.77;102197.46;1779527;79;20223;-70
2021/09/28 12:55:40;;;;;;;;;;;;;;;17.71;46.81;102200.52;1778323;79;20266;-70
2021/09/28 12:58:13;;;;;;;;;;;;;;;17.62;46.99;102204.38;1785758;79;20181;-69
2021/09/28 13:00:51;;;;;;;;;;;;;;;17.58;47.30;102205.20;1782528;80;20270;-72
2021/09/28 13:03:24;;;;;;;;;;;;;;;17.51;47.41;102200.38;1781983;79;20215;-70
2021/09/28 13:05:59;;;;;;;;;;;;;;;17.47;47.73;102199.21;1783925;79;20206;-68
2021/09/28 13:08:31;;;;;;;;;;;;;;;17.44;47.69;102201.17;1781200;80;20287;-69
2021/09/28 13:11:07;;;;;;;;;;;;;;;17.41;47.94;102195.53;1786306;79;20584;-70
2021/09/28 13:13:38;;;;;;;;;;;;;;;17.40;48.01;102202.81;1787253;79;20290;-70
2021/09/28 13:16:10;;;;;;;;;;;;;;;17.39;48.10;102208.14;1787959;79;21084;-70